»·PEaware :: N172SL KVNY-KMHV

N172SL :: KVNY-KMHV

FLIGHT INFORMATION

Flight Status: Arrived
Operator: Privately registered:
United States
More flights under this callsign
Pilot: Steve L. (17268)
Aircraft: CESSNA 172 SKYHAWK
(C172)
More flights by this aircraft type
Origin: KVNY Van Nuys
United States
Destination: KMHV Mojave
United States
More flights between these airports :: More routes between these airports
Route: +
File this flight plan on PilotEdge
Remarks:
Altitude:
(Current/Filed)
7,500ft
Speed:
(Current/Filed)
0kts
Departed: 29-Dec-17 02:28 PM
Arrived: 29-Dec-17 03:05 PM
Distance/Time
Traveled:
54nm/0:37
Distance/Time
To Go:
Arrived

Flight Plot

Page will automatically refresh every two minutes.

Flight plan parsing failed; only flown route is shown


Map Options




Map Legend


Flown Route
Filed Route
Departure Airport
Arrival Airport
Navaid (VOR, NDB)
Fix

Horizontal Profiles

Position Reports

Time Latitude Longitude Heading Altitude Ground
Speed
29-Dec-17 14:18 34.208154 -118.491839 89 774ft 0kts
29-Dec-17 14:19 34.208154 -118.491839 89 774ft 0kts
29-Dec-17 14:20 34.208154 -118.491839 89 774ft 0kts
29-Dec-17 14:21 34.208154 -118.491839 89 774ft 0kts
29-Dec-17 14:22 34.208154 -118.491839 88 774ft 0kts
29-Dec-17 14:23 34.208154 -118.491839 88 774ft 0kts
29-Dec-17 14:24 34.208154 -118.491839 88 774ft 0kts
29-Dec-17 14:25 34.208154 -118.491839 88 774ft 0kts
29-Dec-17 14:26 34.208154 -118.491839 88 774ft 0kts
29-Dec-17 14:27 34.208154 -118.491839 88 774ft 0kts
29-Dec-17 14:28 34.208154 -118.491839 88 774ft 0kts
29-Dec-17 14:29 34.208154 -118.491839 88 774ft 0kts
29-Dec-17 14:30 34.215219 -118.492094 350 792ft 18kts
29-Dec-17 14:31 34.218644 -118.492194 46 798ft 0kts
29-Dec-17 14:32 34.218644 -118.492194 46 798ft 0kts
29-Dec-17 14:33 34.218644 -118.492193 47 798ft 0kts
29-Dec-17 14:34 34.208953 -118.490451 174 1010ft 75kts
29-Dec-17 14:35 34.188596 -118.488750 211 1746ft 77kts
29-Dec-17 14:36 34.199084 -118.507861 358 1975ft 106kts
29-Dec-17 14:37 34.229121 -118.507425 2 2087ft 106kts
29-Dec-17 14:38 34.258460 -118.506217 1 2483ft 106kts
29-Dec-17 14:39 34.288086 -118.504687 3 3018ft 115kts
29-Dec-17 14:40 34.322513 -118.511378 347 2996ft 131kts
29-Dec-17 14:41 34.358383 -118.519151 349 2946ft 131kts
29-Dec-17 14:42 34.387447 -118.524523 352 3848ft 92kts
29-Dec-17 14:43 34.411399 -118.529109 353 4660ft 86kts
29-Dec-17 14:44 34.435420 -118.531405 357 5427ft 90kts
29-Dec-17 14:45 34.465784 -118.535037 350 5560ft 127kts
29-Dec-17 14:46 34.501849 -118.541506 353 5540ft 131kts
29-Dec-17 14:47 34.538159 -118.546236 355 5528ft 133kts
29-Dec-17 14:48 34.574651 -118.549751 354 5566ft 130kts
29-Dec-17 14:49 34.605617 -118.553128 354 6351ft 94kts
29-Dec-17 14:50 34.630493 -118.559816 334 7079ft 92kts
29-Dec-17 14:51 34.654805 -118.573962 333 7494ft 116kts
29-Dec-17 14:52 34.689174 -118.574603 29 7403ft 131kts
29-Dec-17 14:53 34.709800 -118.547073 38 6940ft 137kts
29-Dec-17 14:54 34.741834 -118.509855 49 5772ft 137kts
29-Dec-17 14:55 34.766784 -118.479907 46 5571ft 115kts
29-Dec-17 14:56 34.786546 -118.455941 44 5513ft 125kts
29-Dec-17 14:57 34.810556 -118.424906 50 5429ft 125kts
29-Dec-17 14:58 34.840385 -118.392541 38 5473ft 120kts
29-Dec-17 14:59 34.862026 -118.371140 40 5536ft 121kts
29-Dec-17 15:00 34.887677 -118.344590 41 5579ft 121kts
29-Dec-17 15:01 34.918026 -118.309621 47 4998ft 135kts
29-Dec-17 15:02 34.937156 -118.281916 49 4787ft 123kts
29-Dec-17 15:03 34.960114 -118.252571 45 4843ft 119kts
29-Dec-17 15:04 34.983735 -118.223724 43 4845ft 119kts
29-Dec-17 15:05 35.009935 -118.197224 38 4427ft 126kts
29-Dec-17 15:06 35.037633 -118.173376 31 3832ft 114kts
29-Dec-17 15:07 35.061541 -118.152416 41 3722ft 94kts
29-Dec-17 15:08 35.062030 -118.123735 79 3702ft 90kts
29-Dec-17 15:09 35.058094 -118.107506 255 3414ft 73kts
29-Dec-17 15:10 35.059152 -118.131935 270 2962ft 72kts
29-Dec-17 15:11 35.058369 -118.148796 225 2744ft 6kts
29-Dec-17 15:12 35.058202 -118.148987 224 2744ft 14kts

Navigation Log

Ident Type
Flight plan parsing failed, navigation log unavailable